Time;durP1;ratioP1;P1;durP2;ratioP2;P2;SDS_P1;SDS_P2;PMS_P1;PMS_P2;Temp;Humidity;BMP_temperature;BMP_pressure;BME280_temperature;BME280_humidity;BME280_pressure;Samples;Min_cycle;Max_cycle;Signal;HPM_P1;HPM_P2
2022/10/11 00:01:30;;;;;;;1.35;0.73;;;12.50;94.40;;;;;;10402416;28;20079;-61
2022/10/11 00:06:31;;;;;;;5.25;1.23;;;12.80;94.40;;;;;;10406415;28;20044;-64
2022/10/11 00:11:32;;;;;;;5.30;1.20;;;12.80;94.40;;;;;;10405123;28;20022;-62
2022/10/11 00:16:33;;;;;;;4.25;1.00;;;12.80;94.40;;;;;;10404990;28;20020;-62
2022/10/11 00:21:35;;;;;;;2.67;0.80;;;12.80;94.40;;;;;;10406789;28;20056;-65
2022/10/11 00:26:36;;;;;;;3.17;1.23;;;12.80;94.40;;;;;;10404823;28;20064;-62
2022/10/11 00:31:37;;;;;;;5.68;1.02;;;12.70;94.30;;;;;;10404752;28;20021;-62
2022/10/11 00:36:38;;;;;;;4.20;1.25;;;12.70;94.30;;;;;;10404265;28;20291;-62
2022/10/11 00:41:39;;;;;;;3.97;1.63;;;12.70;94.30;;;;;;10404344;28;20025;-62
2022/10/11 00:46:44;;;;;;;1.63;0.77;;;12.70;94.30;;;;;;10406245;28;20136;-61
2022/10/11 00:51:57;;;;;;;3.60;0.75;;;12.70;94.30;;;;;;10402246;28;20018;-61
2022/10/11 00:57:04;;;;;;;6.22;0.80;;;12.60;94.20;;;;;;10403390;28;20022;-61
2022/10/11 01:02:06;;;;;;;3.40;1.00;;;12.60;94.40;;;;;;10403390;28;20049;-62
2022/10/11 01:07:08;;;;;;;2.45;0.90;;;12.60;94.10;;;;;;10403539;28;20527;-64
2022/10/11 01:12:21;;;;;;;3.72;1.25;;;12.60;94.20;;;;;;10403198;28;20500;-63
2022/10/11 01:17:41;;;;;;;3.13;1.05;;;12.60;94.10;;;;;;10401229;28;20531;-63
2022/10/11 01:23:23;;;;;;;3.33;1.08;;;12.60;94.00;;;;;;10402872;28;20064;-62
2022/10/11 01:28:23;;;;;;;1.52;0.65;;;12.60;94.00;;;;;;10400171;28;20033;-61
2022/10/11 01:33:48;;;;;;;4.88;1.10;;;12.50;94.10;;;;;;10400663;28;20029;-61
2022/10/11 01:38:57;;;;;;;3.67;0.90;;;12.50;94.00;;;;;;10398075;28;20032;-62
2022/10/11 01:44:00;;;;;;;1.30;0.60;;;12.50;94.00;;;;;;10401845;28;20017;-61
2022/10/11 01:49:02;;;;;;;1.42;0.65;;;12.50;94.00;;;;;;10396699;28;20577;-61
2022/10/11 01:54:18;;;;;;;2.92;0.90;;;12.50;94.00;;;;;;10398932;28;20021;-63
2022/10/11 01:59:19;;;;;;;4.95;1.23;;;12.40;93.90;;;;;;10398451;28;20026;-61
2022/10/11 02:04:52;;;;;;;2.38;0.95;;;12.40;93.90;;;;;;10401152;28;20025;-69
2022/10/11 02:10:10;;;;;;;2.33;0.50;;;12.40;93.90;;;;;;10375213;28;20482;-61
2022/10/11 02:15:13;;;;;;;6.10;1.63;;;12.40;93.90;;;;;;10397239;28;20029;-61
2022/10/11 02:20:21;;;;;;;1.02;0.60;;;12.40;93.90;;;;;;10399400;28;20030;-61
2022/10/11 02:25:25;;;;;;;2.63;0.85;;;12.40;93.90;;;;;;10399851;28;20045;-65
2022/10/11 02:30:28;;;;;;;3.33;0.80;;;12.40;93.90;;;;;;10399962;28;20024;-62
2022/10/11 02:35:34;;;;;;;3.05;1.02;;;12.30;93.80;;;;;;10399151;28;20390;-61
2022/10/11 02:40:40;;;;;;;1.15;0.60;;;12.30;93.80;;;;;;10398984;28;20025;-61
2022/10/11 02:45:52;;;;;;;2.45;0.80;;;12.30;93.80;;;;;;10397314;28;20048;-61
2022/10/11 02:50:54;;;;;;;1.65;0.73;;;12.30;93.80;;;;;;10399172;28;20549;-62
2022/10/11 02:55:55;;;;;;;2.03;0.77;;;12.30;93.80;;;;;;10398020;28;20069;-61
2022/10/11 03:00:56;;;;;;;1.55;0.55;;;12.20;93.70;;;;;;10398531;28;20026;-62
2022/10/11 03:06:00;;;;;;;2.05;0.70;;;12.20;93.80;;;;;;10398215;28;20048;-62
2022/10/11 03:11:01;;;;;;;1.52;0.60;;;12.40;93.80;;;;;;10396853;28;20017;-62
2022/10/11 03:16:02;;;;;;;2.53;0.57;;;12.20;93.80;;;;;;10394913;28;20021;-67
2022/10/11 03:21:03;;;;;;;3.10;0.52;;;12.20;93.70;;;;;;10397114;28;20017;-61
2022/10/11 03:26:04;;;;;;;3.78;0.90;;;12.20;93.70;;;;;;10393104;28;20056;-61
2022/10/11 03:31:05;;;;;;;1.92;0.63;;;12.20;93.70;;;;;;10397389;28;20022;-61
2022/10/11 03:36:07;;;;;;;3.63;0.90;;;12.10;93.60;;;;;;10394861;28;20037;-61
2022/10/11 03:41:08;;;;;;;2.92;0.63;;;12.10;93.60;;;;;;10397365;28;20060;-61
2022/10/11 03:46:09;;;;;;;3.28;0.60;;;12.00;93.60;;;;;;10395208;28;20167;-62
2022/10/11 03:51:11;;;;;;;2.00;0.70;;;12.10;93.50;;;;;;10394084;28;20022;-61
2022/10/11 03:56:13;;;;;;;1.60;0.70;;;12.10;93.50;;;;;;10395352;28;21450;-61
2022/10/11 04:01:14;;;;;;;2.33;0.60;;;12.10;93.50;;;;;;10397297;28;20068;-62
2022/10/11 04:06:15;;;;;;;2.25;0.50;;;12.10;93.50;;;;;;10395417;28;20041;-63
2022/10/11 04:11:15;;;;;;;1.63;0.60;;;12.00;93.70;;;;;;10395066;28;20030;-61
2022/10/11 04:16:16;;;;;;;1.55;0.60;;;12.00;93.40;;;;;;10396773;28;20075;-62
2022/10/11 04:21:17;;;;;;;1.95;0.60;;;12.10;93.50;;;;;;10397118;28;20033;-61
2022/10/11 04:26:18;;;;;;;1.83;0.70;;;12.00;93.40;;;;;;10395174;28;21078;-61
2022/10/11 04:31:21;;;;;;;1.27;0.65;;;12.00;93.40;;;;;;10396020;28;20025;-62
2022/10/11 04:36:23;;;;;;;1.25;0.60;;;12.00;93.40;;;;;;10397524;28;20048;-61
2022/10/11 04:41:24;;;;;;;0.63;0.57;;;12.00;93.50;;;;;;10401628;28;20493;-63
2022/10/11 04:46:24;;;;;;;2.10;0.68;;;12.00;93.40;;;;;;10383884;28;20124;-68
2022/10/11 04:51:26;;;;;;;1.40;0.60;;;11.90;93.40;;;;;;10400293;28;20021;-68
2022/10/11 04:56:27;;;;;;;3.28;0.88;;;11.90;93.40;;;;;;10401460;28;20080;-60
2022/10/11 05:01:28;;;;;;;1.38;0.70;;;11.90;93.40;;;;;;10401121;28;20521;-61
2022/10/11 05:06:29;;;;;;;1.95;0.88;;;11.90;93.40;;;;;;10402628;28;20441;-68
2022/10/11 05:11:30;;;;;;;2.13;0.70;;;11.90;93.40;;;;;;10401251;28;20076;-61
2022/10/11 05:16:31;;;;;;;2.58;0.80;;;11.90;93.40;;;;;;10401601;28;20022;-60
2022/10/11 05:21:32;;;;;;;7.07;0.68;;;11.90;93.40;;;;;;10400382;28;20030;-66
2022/10/11 05:26:32;;;;;;;3.55;0.90;;;11.90;93.40;;;;;;10399333;28;20128;-62
2022/10/11 05:31:33;;;;;;;4.40;0.98;;;11.90;93.40;;;;;;10397050;28;20154;-61
2022/10/11 05:36:34;;;;;;;1.63;0.80;;;11.90;93.40;;;;;;10398764;28;20044;-61
2022/10/11 05:41:35;;;;;;;1.92;0.70;;;11.90;93.40;;;;;;10395339;28;20021;-61
2022/10/11 05:46:36;;;;;;;3.15;1.02;;;11.80;93.40;;;;;;10398898;28;20032;-64
2022/10/11 05:51:37;;;;;;;4.43;1.08;;;11.80;93.30;;;;;;10398532;28;20063;-62
2022/10/11 05:56:37;;;;;;;5.47;0.90;;;11.80;93.40;;;;;;10398003;28;20025;-67
2022/10/11 06:01:38;;;;;;;2.95;0.90;;;11.80;93.40;;;;;;10393127;28;20638;-60
2022/10/11 06:06:39;;;;;;;3.95;1.00;;;11.80;93.30;;;;;;10399241;28;20041;-60
2022/10/11 06:11:41;;;;;;;3.50;0.90;;;11.80;93.30;;;;;;10393132;28;20029;-63
2022/10/11 06:16:45;;;;;;;3.90;0.98;;;11.80;93.40;;;;;;10324792;28;20037;-61
2022/10/11 06:21:46;;;;;;;3.53;1.10;;;11.80;93.30;;;;;;10311773;28;20077;-63
2022/10/11 06:26:50;;;;;;;3.45;1.20;;;11.80;93.30;;;;;;10313933;28;20608;-69
2022/10/11 06:31:51;;;;;;;3.47;1.10;;;11.80;93.30;;;;;;10312748;28;20030;-62
2022/10/11 06:36:52;;;;;;;2.92;1.42;;;11.80;93.30;;;;;;10315096;28;20030;-63
2022/10/11 06:41:53;;;;;;;4.90;1.40;;;11.80;93.30;;;;;;10320619;28;20040;-62
2022/10/11 06:46:53;;;;;;;3.88;1.40;;;11.80;93.30;;;;;;10318781;28;20207;-61
2022/10/11 06:51:54;;;;;;;2.67;1.15;;;11.80;93.30;;;;;;10319110;28;20272;-61
2022/10/11 06:56:55;;;;;;;2.40;1.25;;;11.80;93.30;;;;;;10317634;28;20324;-61
2022/10/11 07:01:55;;;;;;;3.17;1.40;;;11.80;93.20;;;;;;10322322;28;20565;-63
2022/10/11 07:06:56;;;;;;;4.68;1.48;;;11.80;93.20;;;;;;10304481;22;20584;-62
2022/10/11 07:11:57;;;;;;;3.38;1.40;;;11.80;93.20;;;;;;10260363;28;20963;-61
2022/10/11 07:16:57;;;;;;;2.85;1.58;;;11.90;93.30;;;;;;10275915;28;20030;-61
2022/10/11 07:21:58;;;;;;;3.33;1.60;;;11.80;93.20;;;;;;10276276;28;20049;-62
2022/10/11 07:27:08;;;;;;;4.43;1.38;;;11.90;93.20;;;;;;10273526;28;20066;-61
2022/10/11 07:32:09;;;;;;;3.80;1.45;;;11.80;93.20;;;;;;10276514;28;20699;-61
2022/10/11 07:37:15;;;;;;;3.85;1.40;;;11.80;93.20;;;;;;10277094;28;20139;-68
2022/10/11 07:42:19;;;;;;;3.50;1.08;;;11.90;93.20;;;;;;10387839;22;20455;-64
2022/10/11 07:47:22;;;;;;;5.45;1.48;;;11.90;93.20;;;;;;10262173;28;20048;-69
2022/10/11 07:52:33;;;;;;;3.38;1.30;;;11.90;93.20;;;;;;10268214;28;20442;-60
2022/10/11 07:57:37;;;;;;;5.05;1.70;;;11.90;93.10;;;;;;10268674;28;20080;-64
2022/10/11 08:02:38;;;;;;;4.32;1.30;;;12.00;93.10;;;;;;10273839;28;20526;-70
2022/10/11 08:07:38;;;;;;;2.70;1.40;;;12.00;93.00;;;;;;10275722;28;20053;-60
2022/10/11 08:12:39;;;;;;;4.35;1.60;;;12.00;93.00;;;;;;10283364;28;20018;-68
2022/10/11 08:17:40;;;;;;;5.40;1.63;;;12.10;93.00;;;;;;10273954;28;20056;-60
2022/10/11 08:22:41;;;;;;;5.68;1.70;;;12.10;93.00;;;;;;10244216;28;20024;-61
2022/10/11 08:27:42;;;;;;;4.82;1.40;;;12.20;93.00;;;;;;10272156;28;20263;-64
2022/10/11 08:32:42;;;;;;;5.10;1.40;;;12.30;93.00;;;;;;10278657;28;20156;-60
2022/10/11 08:37:43;;;;;;;4.50;1.45;;;12.30;92.90;;;;;;10269868;28;20226;-68
2022/10/11 08:43:03;;;;;;;4.68;1.58;;;12.40;92.90;;;;;;10280693;28;20046;-61
2022/10/11 08:48:18;;;;;;;3.80;1.58;;;12.50;93.00;;;;;;10271583;28;20553;-68
2022/10/11 08:53:57;;;;;;;4.22;1.38;;;12.50;92.90;;;;;;10280004;28;20069;-68
2022/10/11 08:59:24;;;;;;;2.63;1.15;;;12.60;92.90;;;;;;10253111;28;20069;-60
2022/10/11 09:04:24;;;;;;;5.07;1.33;;;12.70;93.10;;;;;;10271582;28;20493;-60
2022/10/11 09:09:41;;;;;;;1.83;1.02;;;12.70;92.70;;;;;;10272519;28;20045;-60
2022/10/11 09:15:10;;;;;;;3.85;1.10;;;12.80;93.00;;;;;;10270296;28;20061;-61
2022/10/11 09:20:20;;;;;;;3.08;1.23;;;12.80;92.80;;;;;;10262588;28;20073;-60
2022/10/11 09:25:36;;;;;;;6.82;1.83;;;12.90;92.80;;;;;;10270716;28;20372;-60
2022/10/11 09:30:50;;;;;;;2.92;1.35;;;13.00;92.70;;;;;;10271987;28;20025;-60
2022/10/11 09:35:51;;;;;;;3.35;1.00;;;13.00;92.70;;;;;;10265765;28;20212;-60
2022/10/11 09:41:33;;;;;;;4.28;1.10;;;13.10;92.70;;;;;;10280377;28;20492;-62
2022/10/11 09:47:04;;;;;;;2.95;1.00;;;13.30;92.80;;;;;;10171803;28;20670;-61
2022/10/11 09:52:14;;;;;;;2.15;0.93;;;13.20;92.70;;;;;;10268320;28;20319;-63
2022/10/11 09:57:35;;;;;;;3.05;1.15;;;13.20;92.70;;;;;;10275024;28;20297;-61
2022/10/11 10:03:03;;;;;;;1.92;0.93;;;13.30;92.80;;;;;;10258685;28;20096;-61
2022/10/11 10:08:22;;;;;;;5.53;1.15;;;13.40;92.80;;;;;;10263708;28;20370;-60
2022/10/11 10:13:25;;;;;;;;;;;13.40;92.70;;;;;;10274974;28;20026;-67
2022/10/11 10:18:32;;;;;;;3.40;1.17;;;13.50;92.80;;;;;;10341790;23;19929;-62
2022/10/11 10:23:36;;;;;;;3.70;1.13;;;13.50;92.60;;;;;;10419977;22;20059;-60
2022/10/11 10:28:37;;;;;;;3.33;1.15;;;13.50;92.60;;;;;;10297007;28;20044;-61
2022/10/11 10:33:38;;;;;;;4.15;1.00;;;13.60;92.70;;;;;;10338293;28;20028;-67
2022/10/11 10:38:48;;;;;;;5.15;1.30;;;13.60;92.70;;;;;;10326865;28;20033;-63
2022/10/11 10:43:56;;;;;;;2.13;1.10;;;13.60;92.70;;;;;;10335052;28;20036;-61
2022/10/11 10:49:22;;;;;;;5.00;1.23;;;13.70;92.70;;;;;;10327060;28;20033;-68
2022/10/11 10:54:44;;;;;;;3.00;1.05;;;13.70;92.70;;;;;;10332477;28;20041;-67
2022/10/11 10:59:54;;;;;;;3.00;0.82;;;13.80;92.70;;;;;;10330396;28;20033;-68
2022/10/11 11:05:26;;;;;;;2.08;0.90;;;13.80;92.60;;;;;;10322963;28;20036;-67
2022/10/11 11:10:37;;;;;;;3.80;0.88;;;13.80;92.60;;;;;;10329021;28;20083;-62
2022/10/11 11:15:43;;;;;;;2.72;1.15;;;13.90;92.60;;;;;;10321507;28;20071;-61
2022/10/11 11:20:59;;;;;;;2.97;0.80;;;13.90;92.60;;;;;;10323452;28;20036;-65
2022/10/11 11:26:14;;;;;;;5.97;0.98;;;14.00;92.60;;;;;;10319233;28;20050;-61
2022/10/11 11:31:39;;;;;;;1.98;0.60;;;14.00;92.60;;;;;;10324772;28;20036;-61
2022/10/11 11:36:45;;;;;;;2.85;0.95;;;14.00;92.50;;;;;;10329452;28;20635;-67
2022/10/11 11:41:55;;;;;;;5.10;1.00;;;14.10;92.50;;;;;;10329344;28;20024;-64
2022/10/11 11:47:09;;;;;;;3.92;0.90;;;14.20;92.50;;;;;;10334307;28;20358;-66
2022/10/11 11:52:24;;;;;;;4.70;1.20;;;14.20;92.50;;;;;;10331820;28;20026;-62
2022/10/11 11:57:43;;;;;;;2.83;1.10;;;14.30;92.50;;;;;;10327084;28;20025;-66
2022/10/11 12:03:01;;;;;;;4.43;1.10;;;14.40;92.40;;;;;;10341740;28;20036;-68
2022/10/11 12:08:27;;;;;;;2.80;0.82;;;14.40;92.40;;;;;;10335364;28;20041;-61
2022/10/11 12:13:34;;;;;;;2.80;0.80;;;14.40;92.40;;;;;;10293798;28;20230;-61
2022/10/11 12:19:02;;;;;;;4.60;1.30;;;14.30;92.40;;;;;;10326665;28;20099;-63
2022/10/11 12:24:18;;;;;;;3.60;1.08;;;14.40;92.40;;;;;;10329371;28;20580;-61
2022/10/11 12:29:25;;;;;;;5.00;0.90;;;14.40;92.50;;;;;;10326584;28;20055;-61
2022/10/11 12:34:42;;;;;;;5.25;0.95;;;14.40;92.50;;;;;;10313844;28;20148;-65
2022/10/11 12:39:56;;;;;;;2.00;0.70;;;14.40;92.50;;;;;;10326906;28;20604;-63
2022/10/11 12:45:12;;;;;;;4.50;1.05;;;14.30;92.60;;;;;;10318676;28;20136;-64
2022/10/11 12:50:30;;;;;;;5.13;1.05;;;14.30;92.70;;;;;;10316747;28;20073;-62
2022/10/11 12:55:36;;;;;;;2.50;0.70;;;14.30;92.70;;;;;;10325224;28;20117;-62
2022/10/11 13:00:59;;;;;;;2.60;0.82;;;14.20;92.80;;;;;;10322468;28;20306;-63
2022/10/11 13:06:10;;;;;;;2.95;0.93;;;14.20;92.90;;;;;;10364590;22;20133;-61
2022/10/11 13:11:37;;;;;;;1.33;1.00;;;14.20;93.00;;;;;;10329626;28;20299;-61
2022/10/11 13:16:47;;;;;;;3.88;0.82;;;14.20;93.00;;;;;;10338086;28;20059;-63
2022/10/11 13:21:55;;;;;;;2.63;0.80;;;14.10;93.10;;;;;;10341600;28;20245;-71
2022/10/11 13:26:56;;;;;;;2.50;1.05;;;14.10;93.20;;;;;;10343811;28;20063;-61
2022/10/11 13:31:58;;;;;;;6.50;2.38;;;14.10;93.20;;;;;;10335595;28;21077;-64
2022/10/11 13:36:59;;;;;;;8.02;1.50;;;14.20;93.10;;;;;;10343685;28;20033;-64
2022/10/11 13:42:04;;;;;;;7.75;1.20;;;14.50;93.00;;;;;;10355413;28;20767;-62
2022/10/11 13:47:05;;;;;;;4.22;1.33;;;14.90;92.30;;;;;;10342615;28;20446;-65
2022/10/11 13:52:26;;;;;;;14.77;2.85;;;15.20;91.90;;;;;;10320356;28;20033;-61
2022/10/11 13:57:35;;;;;;;13.98;3.63;;;15.50;91.40;;;;;;10342357;28;20402;-60
2022/10/11 14:02:36;;;;;;;;;;;15.60;91.30;;;;;;10342241;28;20448;-61
2022/10/11 14:07:38;;;;;;;8.73;1.88;;;15.70;91.00;;;;;;10340426;28;20185;-61
2022/10/11 14:12:43;;;;;;;13.32;2.95;;;15.80;91.20;;;;;;10340556;28;20492;-60
2022/10/11 14:17:44;;;;;;;7.57;1.50;;;15.80;91.10;;;;;;10333087;28;20496;-60
2022/10/11 14:22:45;;;;;;;5.85;1.40;;;15.80;91.00;;;;;;10336158;28;20028;-60
2022/10/11 14:27:47;;;;;;;6.90;1.35;;;15.90;91.00;;;;;;10355329;28;20270;-61
2022/10/11 14:32:50;;;;;;;7.93;1.63;;;15.90;91.00;;;;;;10340126;28;20146;-60
2022/10/11 14:37:51;;;;;;;10.43;1.48;;;15.50;91.30;;;;;;10354266;28;20469;-61
2022/10/11 14:42:52;;;;;;;11.85;1.73;;;15.30;91.70;;;;;;10335166;28;20030;-60
2022/10/11 14:47:54;;;;;;;5.10;1.00;;;15.10;92.10;;;;;;10338474;28;20421;-61
2022/10/11 14:52:55;;;;;;;15.07;2.70;;;15.10;92.20;;;;;;10337445;28;20024;-60
2022/10/11 14:57:57;;;;;;;11.02;2.00;;;15.20;92.10;;;;;;10339169;28;20467;-60
2022/10/11 15:02:58;;;;;;;10.70;1.85;;;15.30;92.20;;;;;;10345045;28;20084;-61
2022/10/11 15:07:59;;;;;;;11.48;2.30;;;15.30;92.20;;;;;;10341738;28;20327;-61
2022/10/11 15:13:00;;;;;;;7.47;1.77;;;15.30;92.30;;;;;;10347012;28;20556;-60
2022/10/11 15:18:04;;;;;;;9.20;2.28;;;15.40;92.30;;;;;;10337116;28;20084;-61
2022/10/11 15:23:09;;;;;;;8.75;2.67;;;15.40;92.30;;;;;;10340219;28;20500;-62
2022/10/11 15:28:25;;;;;;;10.30;2.58;;;15.30;92.30;;;;;;10342320;28;20496;-62
2022/10/11 15:33:33;;;;;;;7.70;1.92;;;15.30;92.30;;;;;;10350758;28;20056;-65
2022/10/11 15:38:34;;;;;;;9.25;1.98;;;15.50;92.40;;;;;;10350887;28;20604;-60
2022/10/11 15:43:34;;;;;;;9.95;1.63;;;15.20;92.50;;;;;;10339356;28;20128;-63
2022/10/11 15:48:36;;;;;;;4.85;1.15;;;15.20;92.50;;;;;;10346185;28;20544;-60
2022/10/11 15:53:37;;;;;;;5.40;1.73;;;15.10;92.60;;;;;;10349028;28;20064;-65
2022/10/11 15:58:39;;;;;;;4.68;1.30;;;15.00;92.60;;;;;;10349374;28;20040;-67
2022/10/11 16:03:41;;;;;;;4.70;1.60;;;15.10;92.70;;;;;;10350967;28;20037;-61
2022/10/11 16:08:42;;;;;;;7.97;2.00;;;15.00;92.70;;;;;;10351282;28;20588;-68
2022/10/11 16:13:43;;;;;;;6.38;2.55;;;15.00;92.80;;;;;;10330143;28;20404;-61
2022/10/11 16:18:44;;;;;;;8.73;2.15;;;15.00;92.80;;;;;;10344392;28;20528;-63
2022/10/11 16:23:45;;;;;;;11.07;2.88;;;15.00;92.90;;;;;;10339170;28;20082;-68
2022/10/11 16:28:46;;;;;;;11.02;3.20;;;15.00;92.90;;;;;;10344918;28;20037;-61
2022/10/11 16:33:49;;;;;;;8.80;2.80;;;14.90;93.00;;;;;;10356416;28;20450;-60
2022/10/11 16:38:49;;;;;;;9.60;2.80;;;14.90;93.10;;;;;;10351226;28;20041;-61
2022/10/11 16:43:51;;;;;;;8.57;2.50;;;14.80;93.20;;;;;;10349784;28;20359;-61
2022/10/11 16:48:54;;;;;;;6.43;2.40;;;14.80;93.20;;;;;;10348093;28;20367;-63
2022/10/11 16:53:55;;;;;;;8.85;2.45;;;14.80;93.30;;;;;;10402508;22;20060;-61
2022/10/11 16:58:56;;;;;;;8.43;3.78;;;14.80;93.40;;;;;;10449240;22;20352;-64
2022/10/11 17:03:57;;;;;;;7.03;2.40;;;14.70;93.40;;;;;;10369780;28;20528;-68
2022/10/11 17:08:57;;;;;;;8.10;2.30;;;14.70;93.50;;;;;;10361146;28;20407;-64
2022/10/11 17:14:08;;;;;;;8.43;2.58;;;14.70;93.60;;;;;;10357496;28;20020;-61
2022/10/11 17:19:10;;;;;;;7.30;2.30;;;14.60;93.60;;;;;;10422815;28;20064;-64
2022/10/11 17:24:11;;;;;;;7.00;2.47;;;14.60;93.70;;;;;;10441387;28;20527;-60
2022/10/11 17:29:14;;;;;;;7.75;2.90;;;14.60;93.70;;;;;;10437705;28;20056;-60
2022/10/11 17:34:15;;;;;;;8.35;2.58;;;14.50;93.80;;;;;;10440764;28;20082;-64
2022/10/11 17:39:19;;;;;;;6.78;2.58;;;14.50;93.80;;;;;;10441737;28;20024;-60
2022/10/11 17:44:20;;;;;;;9.77;3.13;;;14.50;93.80;;;;;;10443517;28;20021;-61
2022/10/11 17:49:21;;;;;;;4.90;2.50;;;14.50;93.90;;;;;;10439170;28;20033;-60
2022/10/11 17:54:21;;;;;;;7.47;2.70;;;14.40;93.80;;;;;;10441012;28;20413;-61
2022/10/11 17:59:26;;;;;;;7.30;2.67;;;14.40;93.90;;;;;;10436404;28;21872;-61
2022/10/11 18:04:28;;;;;;;7.47;2.65;;;14.40;93.90;;;;;;10437634;28;20025;-61
2022/10/11 18:09:31;;;;;;;10.70;3.30;;;14.30;93.90;;;;;;10435909;28;20044;-60
2022/10/11 18:14:31;;;;;;;8.45;2.67;;;14.30;93.90;;;;;;10435997;28;20040;-61
2022/10/11 18:19:32;;;;;;;8.98;3.15;;;14.30;93.90;;;;;;10439573;28;20025;-61
2022/10/11 18:24:33;;;;;;;7.80;2.72;;;14.30;94.00;;;;;;10438458;28;20028;-62
2022/10/11 18:29:34;;;;;;;5.90;1.90;;;14.20;93.90;;;;;;10437238;28;20063;-61
2022/10/11 18:34:35;;;;;;;6.43;2.17;;;14.20;93.90;;;;;;10437380;28;20023;-61
2022/10/11 18:39:36;;;;;;;5.75;2.03;;;14.20;94.00;;;;;;10415416;28;20029;-60
2022/10/11 18:44:37;;;;;;;6.75;2.53;;;14.20;94.00;;;;;;10434096;28;20032;-61
2022/10/11 18:49:38;;;;;;;6.28;2.28;;;14.10;93.90;;;;;;10434451;28;20033;-62
2022/10/11 18:54:38;;;;;;;7.30;1.98;;;14.10;93.90;;;;;;10436647;28;20086;-61
2022/10/11 18:59:39;;;;;;;5.18;2.33;;;14.10;93.90;;;;;;10436561;28;20049;-62
2022/10/11 19:04:40;;;;;;;5.45;2.28;;;14.00;93.90;;;;;;10415725;28;20024;-61
2022/10/11 19:09:41;;;;;;;6.97;2.35;;;14.00;93.90;;;;;;10436239;28;20130;-61
2022/10/11 19:14:42;;;;;;;8.73;2.67;;;14.00;93.90;;;;;;10436341;28;20120;-61
2022/10/11 19:19:42;;;;;;;7.40;2.47;;;14.00;93.90;;;;;;10436186;28;20029;-61
2022/10/11 19:24:44;;;;;;;5.38;1.95;;;13.90;93.90;;;;;;10435426;28;20113;-60
2022/10/11 19:29:45;;;;;;;5.07;2.15;;;13.90;93.90;;;;;;10436076;28;20029;-61
2022/10/11 19:34:46;;;;;;;3.33;1.67;;;13.90;93.90;;;;;;10437717;28;20021;-61
2022/10/11 19:39:46;;;;;;;3.67;1.65;;;13.90;93.90;;;;;;10436179;28;20021;-61
2022/10/11 19:44:47;;;;;;;7.07;2.00;;;13.80;93.90;;;;;;10434712;28;20029;-61
2022/10/11 19:49:48;;;;;;;4.72;2.30;;;13.80;93.80;;;;;;10435989;28;20033;-60
2022/10/11 19:54:49;;;;;;;6.10;1.80;;;13.80;93.80;;;;;;10435313;28;20021;-61
2022/10/11 19:59:49;;;;;;;3.78;1.85;;;13.70;93.80;;;;;;10400603;28;20033;-61
2022/10/11 20:04:51;;;;;;;5.53;1.83;;;13.90;93.90;;;;;;10440246;28;20514;-61
2022/10/11 20:09:52;;;;;;;5.05;1.77;;;13.70;93.80;;;;;;10443429;28;20115;-61
2022/10/11 20:14:53;;;;;;;3.55;1.80;;;13.80;93.80;;;;;;10443997;28;20017;-61
2022/10/11 20:19:53;;;;;;;6.15;2.10;;;13.70;93.80;;;;;;10442189;28;20025;-66
2022/10/11 20:24:54;;;;;;;4.63;2.17;;;13.60;93.70;;;;;;10443758;28;20033;-62
2022/10/11 20:29:55;;;;;;;3.30;2.28;;;13.60;93.70;;;;;;10443530;28;20041;-61
2022/10/11 20:34:56;;;;;;;8.63;2.75;;;13.60;93.70;;;;;;10443718;28;20111;-61
2022/10/11 20:39:57;;;;;;;5.75;2.55;;;13.60;93.70;;;;;;10443045;28;20450;-61
2022/10/11 20:44:58;;;;;;;5.45;3.13;;;13.60;93.60;;;;;;10445714;28;20547;-62
2022/10/11 20:49:58;;;;;;;4.90;2.97;;;13.50;93.60;;;;;;10441361;28;20045;-60
2022/10/11 20:54:59;;;;;;;6.22;2.70;;;13.50;93.60;;;;;;10421674;28;20428;-65
2022/10/11 21:00:00;;;;;;;6.40;2.88;;;13.50;93.50;;;;;;10440401;28;20053;-62
2022/10/11 21:05:01;;;;;;;5.53;2.88;;;13.50;93.60;;;;;;10422278;28;20191;-60
2022/10/11 21:10:02;;;;;;;7.57;3.20;;;13.50;93.60;;;;;;10442691;28;20148;-62
2022/10/11 21:15:03;;;;;;;5.57;2.50;;;13.40;93.50;;;;;;10441326;28;20092;-61
2022/10/11 21:20:05;;;;;;;5.85;2.92;;;13.40;93.50;;;;;;10441152;28;20465;-61
2022/10/11 21:25:06;;;;;;;6.30;2.60;;;13.40;93.40;;;;;;10441292;28;20386;-62
2022/10/11 21:30:07;;;;;;;3.90;2.58;;;13.40;93.40;;;;;;10440149;28;20057;-61
2022/10/11 21:35:07;;;;;;;5.72;2.65;;;13.30;93.40;;;;;;10440907;28;20489;-61
2022/10/11 21:40:08;;;;;;;4.85;3.00;;;13.30;93.40;;;;;;10439405;28;20327;-61
2022/10/11 21:45:09;;;;;;;6.50;2.50;;;13.30;93.40;;;;;;10438415;28;20036;-61
2022/10/11 21:50:10;;;;;;;6.60;2.53;;;14.00;93.60;;;;;;10421168;28;20540;-67
2022/10/11 21:55:11;;;;;;;7.78;2.80;;;13.30;93.40;;;;;;10441134;28;20032;-61
2022/10/11 22:00:12;;;;;;;3.55;2.47;;;13.20;93.30;;;;;;10440936;28;20049;-61
2022/10/11 22:05:13;;;;;;;3.08;2.00;;;13.20;93.30;;;;;;10436489;28;20819;-63
2022/10/11 22:10:14;;;;;;;4.47;2.40;;;13.20;93.30;;;;;;10439057;28;20056;-61
2022/10/11 22:15:14;;;;;;;5.10;2.28;;;13.20;93.30;;;;;;10437761;28;20029;-61
2022/10/11 22:20:15;;;;;;;4.53;2.15;;;13.20;93.30;;;;;;10439489;28;20037;-62
2022/10/11 22:25:16;;;;;;;3.70;2.17;;;13.10;93.30;;;;;;10439528;28;20048;-61
2022/10/11 22:30:17;;;;;;;5.30;2.45;;;13.10;93.30;;;;;;10438363;28;20029;-61
2022/10/11 22:35:18;;;;;;;3.58;2.05;;;13.10;93.30;;;;;;10440917;28;20490;-61
2022/10/11 22:40:19;;;;;;;3.28;1.95;;;13.10;93.30;;;;;;10435253;28;20467;-61
2022/10/11 22:45:20;;;;;;;4.05;1.92;;;13.10;93.30;;;;;;10438144;28;20096;-66
2022/10/11 22:50:21;;;;;;;3.05;2.03;;;13.00;93.20;;;;;;10438695;28;20029;-61
2022/10/11 22:55:22;;;;;;;6.15;2.00;;;13.00;93.20;;;;;;10439124;28;20017;-61
2022/10/11 23:00:22;;;;;;;6.45;2.72;;;13.00;93.30;;;;;;10439313;28;20095;-61
2022/10/11 23:05:23;;;;;;;3.92;1.80;;;13.00;93.30;;;;;;10437548;28;20117;-61
2022/10/11 23:10:24;;;;;;;4.80;1.85;;;13.00;93.30;;;;;;10439342;28;20033;-63
2022/10/11 23:15:25;;;;;;;3.15;1.80;;;13.00;93.30;;;;;;10439006;28;20025;-61
2022/10/11 23:20:25;;;;;;;2.75;1.83;;;13.00;93.30;;;;;;10439050;28;20029;-61
2022/10/11 23:25:26;;;;;;;4.18;2.20;;;13.00;93.30;;;;;;10437914;28;20024;-62
2022/10/11 23:30:28;;;;;;;2.95;1.70;;;13.00;93.30;;;;;;10438871;28;20037;-61
2022/10/11 23:35:29;;;;;;;3.88;2.10;;;13.00;93.30;;;;;;10439774;28;20033;-61
2022/10/11 23:40:30;;;;;;;2.58;1.75;;;13.00;93.30;;;;;;10437804;28;20032;-61
2022/10/11 23:45:30;;;;;;;3.00;1.92;;;12.90;93.30;;;;;;10437509;28;20047;-62
2022/10/11 23:50:31;;;;;;;3.65;2.22;;;12.90;93.30;;;;;;10437674;28;20033;-61
2022/10/11 23:55:32;;;;;;;2.83;1.80;;;12.90;93.30;;;;;;10437886;28;20025;-61
